Terminal Aerodrome Forecast
Issued by NWS

Home | Current Version | Previous Version | Text Only | Print | Product List | Glossary On
Versions: 1 2 3 4 5 6 7 8 9 10 11 12 13 14 15 16 17 18 19 20
816
FTUS44 KSJT 211147
TAFSOA
TAF
KSOA 211147Z 2112/2212 18011KT P6SM OVC012
     FM211800 19012G17KT P6SM BKN025
     FM212100 20011G17KT P6SM SCT050
     FM220000 18006KT P6SM SCT250
     FM220700 34012KT P6SM VCTS SCT040CB BKN100=

USA.gov is the U.S. government's official web portal to all federal, state and local government web resources and services.